createdAt,value
2023-11-10T11:25:39.324Z,99655.72
2023-11-10T11:28:42.233Z,99649.44
2023-11-10T11:31:48.529Z,99640.66
2023-11-10T11:34:53.037Z,99639.63
2023-11-10T11:38:02.808Z,99631.56
2023-11-10T11:41:05.458Z,99622.25
2023-11-10T11:44:08.028Z,99628.50
2023-11-10T11:47:12.773Z,99624.72
2023-11-10T11:50:16.163Z,99633.47
2023-11-10T11:53:28.064Z,99610.50
2023-11-10T11:56:33.398Z,99613.50
2023-11-10T11:59:36.588Z,99617.81
2023-11-10T12:02:41.137Z,99609.31
2023-11-10T12:05:59.259Z,99606.84
2023-11-10T12:09:22.143Z,99583.41
2023-11-10T12:12:43.574Z,99592.50
2023-11-10T12:19:29.375Z,99578.16
2023-11-10T12:22:43.177Z,99573.25
2023-11-10T19:09:42.278Z,99333.53
2023-11-10T19:12:45.540Z,99336.94
2023-11-10T19:15:48.055Z,99327.13
2023-11-10T19:18:50.504Z,99324.00
2023-11-10T19:21:54.219Z,99312.69
2023-11-10T19:24:56.742Z,99318.94
2023-11-10T19:27:59.558Z,99315.31
2023-11-10T19:31:02.072Z,99304.56
2023-11-10T19:34:06.118Z,99310.78
2023-11-10T19:37:08.931Z,99300.91
2023-11-10T19:40:20.812Z,99293.28
2023-11-10T19:43:23.276Z,99294.69
2023-11-10T19:46:26.673Z,99288.97
2023-11-10T19:49:29.259Z,99294.75
2023-11-10T19:52:32.339Z,99282.50
2023-11-10T19:55:42.468Z,99294.97
2023-11-10T20:01:53.283Z,99281.16
2023-11-10T20:04:55.626Z,99272.84
2023-11-10T20:07:58.116Z,99267.81
2023-11-10T20:11:00.806Z,99274.41
2023-11-10T20:14:05.034Z,99262.19
2023-11-10T20:17:07.448Z,99261.59
2023-11-10T20:20:10.360Z,99262.59
2023-11-10T20:23:13.029Z,99257.41
2023-11-10T20:26:15.619Z,99248.06
2023-11-10T20:29:18.368Z,99254.09
2023-11-10T20:32:20.733Z,99239.91
2023-11-10T20:35:23.127Z,99250.81
2023-11-10T20:38:25.565Z,99241.00
2023-11-10T20:41:28.147Z,99227.47
2023-11-10T20:44:30.571Z,99226.66
2023-11-10T20:47:32.927Z,99230.78
2023-11-10T20:50:35.767Z,99234.47
2023-11-10T20:53:38.067Z,99232.56
2023-11-10T20:56:43.494Z,99222.38
2023-11-10T20:59:45.914Z,99224.50
2023-11-10T21:02:49.956Z,99214.56
2023-11-10T21:05:55.136Z,99202.03
2023-11-10T21:08:57.519Z,99220.53
2023-11-10T21:11:59.914Z,99220.75
2023-11-10T21:15:03.412Z,99209.44
2023-11-10T21:18:08.742Z,99200.09
2023-11-10T21:21:11.539Z,99207.38
2023-11-10T21:24:13.954Z,99201.13
2023-11-10T21:27:16.344Z,99207.44
2023-11-10T21:30:19.381Z,99198.31
2023-11-10T21:33:27.125Z,99202.19
2023-11-10T21:36:29.554Z,99191.00
2023-11-10T21:39:33.389Z,99197.16
2023-11-10T21:42:36.657Z,99194.91
2023-11-10T21:45:43.474Z,99183.94
2023-11-10T21:48:46.156Z,99185.22
2023-11-10T21:51:49.057Z,99175.66
2023-11-10T21:54:51.522Z,99186.06
2023-11-10T21:57:54.437Z,99181.03
2023-11-10T22:00:58.175Z,99185.22
2023-11-10T22:04:00.556Z,99174.75
2023-11-10T22:07:03.102Z,99183.09
2023-11-10T22:10:05.879Z,99168.78
2023-11-10T22:13:08.364Z,99169.50
2023-11-10T22:16:10.778Z,99186.25
2023-11-10T22:19:13.227Z,99176.63
2023-11-10T22:22:17.094Z,99176.09
2023-11-10T22:25:20.703Z,99177.06
2023-11-10T22:28:24.075Z,99174.69
2023-11-10T22:31:26.874Z,99175.22
2023-11-10T22:34:29.286Z,99168.16
2023-11-10T22:37:35.206Z,99175.97
2023-11-10T22:40:38.755Z,99170.44
2023-11-10T22:43:41.098Z,99169.63
2023-11-10T22:46:43.417Z,99168.38
2023-11-10T22:49:45.892Z,99166.81
2023-11-10T22:52:48.321Z,99164.63
2023-11-10T22:55:50.714Z,99151.53
2023-11-10T22:58:56.094Z,99150.63
2023-11-10T23:01:58.792Z,99151.31
2023-11-10T23:05:03.233Z,99158.34
2023-11-10T23:08:07.215Z,99146.00
2023-11-10T23:11:09.713Z,99151.84
2023-11-10T23:14:12.012Z,99147.09
2023-11-10T23:17:14.313Z,99140.00
2023-11-10T23:20:26.807Z,99125.91
2023-11-10T23:23:36.892Z,99118.19
2023-11-10T23:26:39.569Z,99127.13
2023-11-10T23:29:42.363Z,99124.78
2023-11-10T23:32:46.993Z,99128.38
2023-11-10T23:35:59.125Z,99128.81
2023-11-10T23:39:04.761Z,99138.88
2023-11-10T23:42:07.133Z,99136.81
2023-11-10T23:45:09.903Z,99133.63
2023-11-10T23:48:13.661Z,99135.69
2023-11-10T23:51:16.154Z,99133.84
2023-11-10T23:54:18.520Z,99131.22
2023-11-10T23:57:20.946Z,99130.94
